FW3872 Orange Beach AL US current weather conditions

sailwx.info

Wind from 060

Air temperature 3.9° C
Dewpoint 3.2° C

Last reported at 2020-Jan-25 13:01 UTC.
Time now 2020-Jan-25 13:27 UTC

Location: N 30°17' W 087°35'.
View on Google Maps.

See reports from other nearby stations

  
Tides and Currents Weather Stations Pressure Air Temp Water Temp Dewpoint Dewpoint Depression Visibility Wind Speed Wind Dir Waves Ship Positions
date/time (UTC)wind fromknots sea level pressurealtimeterstation pressurevisibilityair tempwater tempwave heightnotes
2020-Jan-25 13:01 060 3.9
2020-Jan-25 12:46 355 2.2
2020-Jan-25 12:31 355 2.2
2020-Jan-25 12:17 355 2.2
2020-Jan-25 12:00 355 2.8
2020-Jan-25 11:46 355 3.3
2020-Jan-25 11:31 065 5.0
2020-Jan-25 11:15 355 3.9
2020-Jan-25 11:00 355 4.4
2020-Jan-25 10:45 077 6.1
2020-Jan-25 10:30 355 5.6
2020-Jan-25 10:16 355 5.6
2020-Jan-25 10:15 057 6.1
2020-Jan-25 10:00 355 5.6
2020-Jan-25 09:50 063 6.1
2020-Jan-25 09:33 067 6.1
2020-Jan-25 09:18 065 6.1
2020-Jan-25 09:15 055 5.6
2020-Jan-25 09:02 084 6.7
2020-Jan-25 09:00 055 6.1
2020-Jan-25 08:48 069 6.7
2020-Jan-25 08:34 063 0 gusting 6 6.7
2020-Jan-25 08:30 027 6.7
2020-Jan-25 08:17 044 0 gusting 7 7.2
2020-Jan-25 08:03 062 1 gusting 6 7.2
2020-Jan-25 08:00 044 7.2
2020-Jan-25 07:46 069 0 gusting 6 7.8
2020-Jan-25 07:31 057 8.3
2020-Jan-25 07:16 355 8.3
2020-Jan-25 07:02 355 8.3
2020-Jan-25 06:48 293 8.3
2020-Jan-25 06:45 292 8.3
2020-Jan-25 06:31 290 8.3
2020-Jan-25 06:16 290 8.3
2020-Jan-25 06:02 069 9.4
2020-Jan-25 05:46 069 9.4
2020-Jan-25 05:30 057 10.0
2020-Jan-25 05:16 289 9.4
2020-Jan-25 05:02 289 9.4
2020-Jan-25 04:45 066 10.6
2020-Jan-25 04:30 076 10.6
2020-Jan-25 04:15 070 11.1
2020-Jan-25 04:02 289 10.6
2020-Jan-25 03:48 289 11.1
2020-Jan-25 03:31 291 11.1
2020-Jan-25 03:15 073 11.7
2020-Jan-25 03:01 279 11.1
2020-Jan-25 02:45 279 11.7
2020-Jan-25 02:30 290 11.7
2020-Jan-25 02:15 281 11.7
2020-Jan-25 02:00 281 11.7
2020-Jan-25 01:46 271 11.7
2020-Jan-25 01:32 271 11.7
2020-Jan-25 01:17 265 11.7
2020-Jan-25 01:15 061 11.7
2020-Jan-25 01:00 271 11.1
2020-Jan-25 00:45 271 11.7
2020-Jan-25 00:31 271 11.7
2020-Jan-25 00:30 058 0 gusting 4 12.2
2020-Jan-25 00:16 271 11.7
2020-Jan-25 00:15 050 12.2
2020-Jan-25 00:00 067 12.8
2020-Jan-24 23:45 273 11.7
2020-Jan-24 23:30 044 2 gusting 9 13.3
2020-Jan-24 23:16 273 12.8
2020-Jan-24 23:01 259 13.3
2020-Jan-24 23:00 065 1 gusting 5 13.9
2020-Jan-24 22:45 269 13.9
2020-Jan-24 22:30 063 6 gusting 10 13.9
2020-Jan-24 22:16 271 14.4
2020-Jan-24 22:15 076 6 gusting 13 13.9
2020-Jan-24 22:01 252 15.6
2020-Jan-24 21:48 066 6 gusting 13 14.4
2020-Jan-24 21:32 067 5 gusting 12 14.4
2020-Jan-24 21:18 030 7 gusting 13 14.4
2020-Jan-24 21:02 267 17.2
2020-Jan-24 20:47 310 17.2
2020-Jan-24 20:32 041 4 gusting 13 16.1
2020-Jan-24 20:16 055 5 gusting 12 16.1
2020-Jan-24 20:01 298 16.7
2020-Jan-24 19:48 063 4 gusting 12 15.6
2020-Jan-24 19:32 321 16.7
2020-Jan-24 19:17 065 4 gusting 13 15.6
2020-Jan-24 19:02 307 2 gusting 13 16.1
2020-Jan-24 18:47 323 9 gusting 14 16.1
2020-Jan-24 18:33 355 6 gusting 13 15.6
2020-Jan-24 18:17 308 3 gusting 9 15.0
2020-Jan-24 18:01 013 15.0
2020-Jan-24 17:47 337 6 gusting 11 13.9
2020-Jan-24 17:32 351 2 gusting 11 13.3
2020-Jan-24 17:16 360 3 gusting 7 12.8
2020-Jan-24 17:01 306 11.7
2020-Jan-24 16:46 309 4 gusting 9 11.7
2020-Jan-24 16:45 304 0 gusting 3 11.7
2020-Jan-24 16:31 282 7 gusting 12 12.2
2020-Jan-24 16:30 312 0 gusting 6 11.7
2020-Jan-24 16:17 314 5 gusting 10 12.8
2020-Jan-24 16:03 309 12.8
2020-Jan-24 15:47 304 12.8
2020-Jan-24 15:31 309 12.8
2020-Jan-24 15:15 338 2 gusting 7 12.2
2020-Jan-24 14:47 309 12.2
2020-Jan-24 14:30 005 2 gusting 11 12.2
2020-Jan-24 14:15 344 4 gusting 11 12.2
2020-Jan-24 14:00 355 2 gusting 10 12.2
2020-Jan-24 13:46 018 2 gusting 8 12.8
2020-Jan-24 13:33 307 12.8
2020-Jan-24 13:17 005 12.8
2020-Jan-24 13:01 316 12.8
2020-Jan-24 12:47 312 12.8
2020-Jan-24 12:31 355 13.3
2020-Jan-24 12:15 325 13.9
2020-Jan-24 12:01 321 0 gusting 5 13.9
2020-Jan-24 11:47 317 14.4
2020-Jan-24 11:30 298 14.4
2020-Jan-24 11:16 304 14.4
2020-Jan-24 11:00 300 14.4
2020-Jan-24 10:46 304 14.4
2020-Jan-24 10:30 271 1 gusting 4 14.4
2020-Jan-24 10:15 292 1 gusting 3 14.4
2020-Jan-24 10:00 240 13.9
2020-Jan-24 09:46 117 12.8
2020-Jan-24 09:30 117 12.8
2020-Jan-24 09:16 117 12.2
2020-Jan-24 09:15 239 12.8
2020-Jan-24 09:00 239 12.8
2020-Jan-24 08:46 117 12.2
2020-Jan-24 08:45 239 13.3
2020-Jan-24 08:31 117 12.2
2020-Jan-24 08:16 117 12.2
2020-Jan-24 08:15 239 13.3
2020-Jan-24 08:00 296 13.3
2020-Jan-24 07:45 296 13.9
2020-Jan-24 07:32 117 13.3
2020-Jan-24 07:17 296 14.4
2020-Jan-24 07:15 117 13.9
2020-Jan-24 07:02 296 14.4
2020-Jan-24 07:00 117 13.9
2020-Jan-24 06:47 296 14.4
2020-Jan-24 06:45 117 13.9
2020-Jan-24 06:33 296 14.4
2020-Jan-24 06:30 117 13.3
2020-Jan-24 06:18 117 13.3
2020-Jan-24 06:02 294 15.0
2020-Jan-24 05:46 294 15.0
2020-Jan-24 05:32 294 15.0
2020-Jan-24 05:17 294 15.6
2020-Jan-24 05:15 117 14.4
2020-Jan-24 05:02 294 15.6
2020-Jan-24 05:00 117 14.4
2020-Jan-24 04:46 178 15.6
2020-Jan-24 04:33 178 15.6
2020-Jan-24 04:30 117 15.0
2020-Jan-24 04:17 117 15.0
2020-Jan-24 04:01 117 15.0
2020-Jan-24 03:48 117 15.6
2020-Jan-24 03:32 117 16.1
2020-Jan-24 03:16 121 1 gusting 2 16.7
2020-Jan-24 03:01 132 1 gusting 4 16.7
2020-Jan-24 02:47 142 0 gusting 5 16.7
2020-Jan-24 02:31 126 3 gusting 7 16.7
2020-Jan-24 02:17 139 4 gusting 11 16.7
2020-Jan-24 02:02 184 4 gusting 8 16.1
2020-Jan-24 02:00 138 1 gusting 5 16.7
2020-Jan-24 01:46 123 3 gusting 6 16.7
2020-Jan-24 01:45 097 16.1
2020-Jan-24 01:32 142 2 gusting 8 16.1
2020-Jan-24 01:17 095 3 gusting 8 15.6
2020-Jan-24 01:01 093 5 gusting 7 15.6
2020-Jan-24 00:46 087 15.0
2020-Jan-24 00:32 107 4 gusting 9 15.6
2020-Jan-24 00:17 100 13.3
2020-Jan-24 00:01 078 1 gusting 6 13.3
2020-Jan-23 23:47 091 12.2
2020-Jan-23 23:31 103 11.7
2020-Jan-23 23:17 067 11.7
2020-Jan-23 23:02 090 11.1
2020-Jan-23 22:47 113 11.1
2020-Jan-23 22:32 082 11.1
2020-Jan-23 22:15 067 7 gusting 11 11.1
2020-Jan-23 22:00 098 7 gusting 13 11.1
2020-Jan-23 21:46 088 11.1
2020-Jan-23 21:31 079 11.1
2020-Jan-23 21:00 005 2 gusting 5 11.1
2020-Jan-23 20:47 055 11.1
2020-Jan-23 20:30 082 11.1
2020-Jan-23 20:15 096 11.1
2020-Jan-23 20:00 078 11.1
2020-Jan-23 19:45 103 11.1
2020-Jan-23 19:31 086 6 gusting 11 11.7
2020-Jan-23 19:30 093 11.1
2020-Jan-23 19:15 075 6 gusting 12 11.7
2020-Jan-23 19:02 089 11.7
2020-Jan-23 19:00 076 8 gusting 15 11.7
2020-Jan-23 18:48 084 12.2
2020-Jan-23 18:32 103 8 gusting 13 11.7
2020-Jan-23 18:30 109 12.2
2020-Jan-23 18:18 079 12.2
2020-Jan-23 18:02 090 7 gusting 14 11.7
2020-Jan-23 18:00 068 12.2
2020-Jan-23 17:48 088 8 gusting 15 11.7
2020-Jan-23 17:33 084 8 gusting 14 11.7
2020-Jan-23 17:17 085 9 gusting 15 11.7
2020-Jan-23 17:01 074 8 gusting 13 11.1
2020-Jan-23 16:47 090 11.1
2020-Jan-23 16:33 099 11.1
2020-Jan-23 16:16 059 11.7
2020-Jan-23 16:02 077 8 gusting 13 11.1
2020-Jan-23 15:46 076 8 gusting 14 11.1
2020-Jan-23 15:31 090 8 gusting 16 10.6
2020-Jan-23 15:17 088 10.6
2020-Jan-23 15:02 082 10.6
2020-Jan-23 14:47 092 10.6
2020-Jan-23 14:32 057 10.0
2020-Jan-23 14:16 065 10.0
2020-Jan-23 14:00 070 10.0
2020-Jan-23 13:46 073 8 gusting 12 10.6
2020-Jan-23 13:30 085 6 gusting 12 10.0
2020-Jan-23 13:18 060 10.0
2020-Jan-23 13:01 082 6 gusting 11 10.0